Wetterdaten: Woche 16.11.09 - 22.11.09 (KW47)
Datum Zeit Temperatur Luftfeuchte Luftdruck Niederschlag Wind Richtung Sonnenschein Solar Taupunkt Windchill Windben
16.11.2009 00:00 7.9 C 99 % 1014.1 hPa 1.2 l/m 0.5 km/h (0 Bft) O-SO 0.00 h 0 W/m 7.8 C 7.9 C 1.1 km/h (0 Bft)
16.11.2009 01:00 8.0 C 99 % 1013.8 hPa 1.0 l/m 0.7 km/h (0 Bft) O-SO 0.00 h 0 W/m 7.9 C 8.0 C 1.5 km/h (1 Bft)
16.11.2009 02:00 8.1 C 99 % 1013.3 hPa 1.2 l/m 0.0 km/h (0 Bft) N 0.00 h 0 W/m 8.0 C 8.1 C 0.0 km/h (0 Bft)
16.11.2009 03:00 8.2 C 99 % 1013.1 hPa 1.0 l/m 0.1 km/h (0 Bft) S 0.00 h 0 W/m 8.0 C 8.2 C 0.3 km/h (0 Bft)
16.11.2009 04:00 8.2 C 99 % 1013.0 hPa 1.2 l/m 0.0 km/h (0 Bft) N 0.00 h 0 W/m 8.1 C 8.2 C 0.1 km/h (0 Bft)
16.11.2009 05:00 8.2 C 99 % 1012.9 hPa 0.6 l/m 0.2 km/h (0 Bft) O 0.00 h 0 W/m 8.1 C 8.2 C 0.9 km/h (0 Bft)
16.11.2009 06:00 8.5 C 99 % 1013.2 hPa 1.2 l/m 0.6 km/h (0 Bft) N-NO 0.00 h 0 W/m 8.4 C 8.5 C 1.4 km/h (1 Bft)
16.11.2009 07:00 9.1 C 99 % 1013.5 hPa 1.0 l/m 0.0 km/h (0 Bft) N-NO 0.00 h 0 W/m 8.9 C 9.1 C 0.6 km/h (0 Bft)
16.11.2009 08:00 9.4 C 99 % 1014.0 hPa 0.6 l/m 0.3 km/h (0 Bft) N-NO 0.00 h 19 W/m 9.3 C 9.4 C 1.1 km/h (1 Bft)
16.11.2009 09:00 9.9 C 99 % 1013.9 hPa 0.2 l/m 0.3 km/h (0 Bft) N-NO 0.00 h 72 W/m 9.8 C 9.9 C 1.4 km/h (1 Bft)
16.11.2009 10:00 10.7 C 99 % 1013.6 hPa 0.0 l/m 0.8 km/h (0 Bft) N-NW 0.23 h 133 W/m 10.6 C 10.7 C 1.7 km/h (1 Bft)
16.11.2009 11:00 11.7 C 99 % 1013.3 hPa 0.0 l/m 0.4 km/h (0 Bft) N-NW 0.10 h 119 W/m 11.5 C 11.7 C 1.4 km/h (1 Bft)
16.11.2009 12:00 12.1 C 99 % 1013.0 hPa 0.0 l/m 0.5 km/h (0 Bft) N-NW 0.45 h 209 W/m 11.9 C 12.1 C 1.8 km/h (1 Bft)
16.11.2009 13:00 12.4 C 99 % 1012.5 hPa 0.0 l/m 1.0 km/h (0 Bft) S 0.02 h 107 W/m 12.2 C 12.4 C 3.0 km/h (1 Bft)
16.11.2009 14:00 12.6 C 99 % 1012.5 hPa 0.0 l/m 0.9 km/h (0 Bft) S-SO 0.12 h 118 W/m 12.4 C 12.6 C 2.5 km/h (1 Bft)
16.11.2009 15:00 12.7 C 98 % 1012.4 hPa 0.0 l/m 0.7 km/h (0 Bft) S-SO 0.00 h 45 W/m 12.4 C 12.7 C 2.4 km/h (1 Bft)
16.11.2009 16:00 12.3 C 96 % 1012.6 hPa 0.0 l/m 0.3 km/h (0 Bft) S-SO 0.00 h 11 W/m 11.6 C 12.3 C 1.1 km/h (1 Bft)
16.11.2009 17:00 11.8 C 95 % 1013.0 hPa 0.0 l/m 1.6 km/h (1 Bft) SO 0.00 h 0 W/m 11.0 C 11.8 C 3.2 km/h (1 Bft)
16.11.2009 18:00 11.6 C 95 % 1013.4 hPa 0.2 l/m 1.5 km/h (1 Bft) S-SO 0.00 h 0 W/m 10.9 C 11.6 C 2.9 km/h (1 Bft)
16.11.2009 19:00 11.4 C 95 % 1013.6 hPa 0.0 l/m 2.7 km/h (1 Bft) O-SO 0.00 h 0 W/m 10.7 C 11.4 C 4.2 km/h (1 Bft)
16.11.2009 20:00 10.8 C 96 % 1013.8 hPa 0.0 l/m 1.2 km/h (1 Bft) O-SO 0.00 h 0 W/m 10.1 C 10.8 C 2.4 km/h (1 Bft)
16.11.2009 21:00 10.6 C 96 % 1013.9 hPa 0.0 l/m 0.8 km/h (0 Bft) O-SO 0.00 h 0 W/m 10.0 C 10.6 C 1.7 km/h (1 Bft)
16.11.2009 22:00 10.0 C 96 % 1014.2 hPa 0.0 l/m 0.5 km/h (0 Bft) O-SO 0.00 h 0 W/m 9.4 C 10.0 C 1.6 km/h (1 Bft)
16.11.2009 23:00 10.1 C 97 % 1014.6 hPa 0.0 l/m 1.2 km/h (1 Bft) O-SO 0.00 h 0 W/m 9.7 C 10.1 C 2.1 km/h (1 Bft)
17.11.2009 00:00 10.3 C 98 % 1014.6 hPa 0.0 l/m 1.4 km/h (1 Bft) S-SO 0.00 h 0 W/m 10.0 C 10.3 C 2.8 km/h (1 Bft)
17.11.2009 01:00 10.3 C 98 % 1014.5 hPa 0.0 l/m 0.5 km/h (0 Bft) S-SO 0.00 h 0 W/m 10.0 C 10.3 C 1.3 km/h (1 Bft)
17.11.2009 02:00 10.2 C 98 % 1014.3 hPa 0.0 l/m 1.8 km/h (1 Bft) S-SO 0.00 h 0 W/m 9.9 C 10.2 C 4.4 km/h (1 Bft)
17.11.2009 03:00 10.1 C 98 % 1014.1 hPa 0.0 l/m 1.9 km/h (1 Bft) S-SO 0.00 h 0 W/m 9.8 C 10.1 C 4.0 km/h (1 Bft)
17.11.2009 04:00 10.1 C 98 % 1014.0 hPa 0.0 l/m 0.4 km/h (0 Bft) S-SO 0.00 h 0 W/m 9.8 C 10.1 C 1.3 km/h (1 Bft)
17.11.2009 05:00 10.1 C 98 % 1014.1 hPa 0.0 l/m 0.2 km/h (0 Bft) S 0.00 h 0 W/m 9.8 C 10.1 C 1.0 km/h (0 Bft)
17.11.2009 06:00 9.8 C 98 % 1014.0 hPa 0.0 l/m 0.6 km/h (0 Bft) S 0.00 h 0 W/m 9.5 C 9.8 C 2.0 km/h (1 Bft)
17.11.2009 07:00 9.3 C 98 % 1014.1 hPa 0.0 l/m 4.2 km/h (1 Bft) SO 0.00 h 7 W/m 9.0 C 9.0 C 6.8 km/h (2 Bft)
17.11.2009 08:00 9.2 C 98 % 1014.2 hPa 0.0 l/m 3.0 km/h (1 Bft) S-SO 0.00 h 17 W/m 8.9 C 9.0 C 5.7 km/h (1 Bft)
17.11.2009 09:00 9.3 C 98 % 1014.1 hPa 0.0 l/m 2.0 km/h (1 Bft) S-SO 0.00 h 38 W/m 9.0 C 9.2 C 4.4 km/h (1 Bft)
17.11.2009 10:00 9.8 C 97 % 1014.2 hPa 0.0 l/m 2.2 km/h (1 Bft) S-SO 0.00 h 89 W/m 9.3 C 9.7 C 4.6 km/h (1 Bft)
17.11.2009 11:00 11.2 C 96 % 1013.8 hPa 0.0 l/m 0.9 km/h (0 Bft) NO 0.27 h 172 W/m 10.5 C 11.2 C 2.2 km/h (1 Bft)
17.11.2009 12:00 12.6 C 90 % 1012.9 hPa 0.0 l/m 0.9 km/h (0 Bft) S 0.05 h 162 W/m 11.0 C 12.6 C 2.6 km/h (1 Bft)
17.11.2009 13:00 13.6 C 85 % 1012.3 hPa 0.0 l/m 0.8 km/h (0 Bft) S-SW 0.37 h 201 W/m 11.0 C 13.6 C 2.2 km/h (1 Bft)
17.11.2009 14:00 14.7 C 79 % 1012.1 hPa 0.2 l/m 0.9 km/h (0 Bft) W-SW 0.45 h 154 W/m 11.2 C 14.7 C 2.1 km/h (1 Bft)
17.11.2009 15:00 14.5 C 80 % 1012.0 hPa 0.0 l/m 1.4 km/h (1 Bft) W-NW 0.00 h 48 W/m 11.0 C 14.5 C 3.2 km/h (1 Bft)
17.11.2009 16:00 13.2 C 84 % 1012.9 hPa 0.0 l/m 2.3 km/h (1 Bft) O-SO 0.00 h 17 W/m 10.6 C 13.2 C 3.5 km/h (1 Bft)
17.11.2009 17:00 12.3 C 88 % 1013.7 hPa 0.0 l/m 0.8 km/h (0 Bft) O 0.00 h 0 W/m 10.4 C 12.3 C 1.7 km/h (1 Bft)
17.11.2009 18:00 12.2 C 90 % 1015.0 hPa 0.0 l/m 3.0 km/h (1 Bft) O-SO 0.00 h 0 W/m 10.6 C 12.2 C 4.5 km/h (1 Bft)
17.11.2009 19:00 12.1 C 90 % 1015.9 hPa 0.0 l/m 0.5 km/h (0 Bft) SO 0.00 h 0 W/m 10.4 C 12.1 C 1.4 km/h (1 Bft)
17.11.2009 20:00 12.6 C 88 % 1016.8 hPa 0.0 l/m 6.6 km/h (2 Bft) W-NW 0.00 h 0 W/m 10.6 C 12.6 C 10.9 km/h (2 Bft)
17.11.2009 21:00 14.4 C 78 % 1017.7 hPa 0.2 l/m 10.1 km/h (2 Bft) W 0.00 h 0 W/m 10.5 C 14.4 C 16.3 km/h (3 Bft)
17.11.2009 22:00 13.3 C 85 % 1018.9 hPa 0.8 l/m 12.5 km/h (3 Bft) W 0.00 h 0 W/m 10.8 C 13.3 C 19.8 km/h (4 Bft)
17.11.2009 23:00 11.8 C 88 % 1019.9 hPa 0.8 l/m 15.9 km/h (3 Bft) W 0.00 h 0 W/m 9.9 C 11.8 C 24.2 km/h (4 Bft)
18.11.2009 00:00 10.9 C 88 % 1020.6 hPa 0.0 l/m 15.0 km/h (3 Bft) W 0.00 h 0 W/m 9.0 C 10.9 C 22.9 km/h (4 Bft)
18.11.2009 01:00 10.4 C 88 % 1021.3 hPa 0.0 l/m 7.7 km/h (2 Bft) W 0.00 h 0 W/m 8.4 C 10.4 C 12.6 km/h (3 Bft)
18.11.2009 02:00 10.0 C 88 % 1021.8 hPa 0.0 l/m 1.5 km/h (1 Bft) N-NW 0.00 h 0 W/m 8.1 C 10.0 C 3.2 km/h (1 Bft)
18.11.2009 03:00 9.9 C 88 % 1022.1 hPa 0.0 l/m 1.8 km/h (1 Bft) SO 0.00 h 0 W/m 8.0 C 9.8 C 3.2 km/h (1 Bft)
18.11.2009 04:00 9.8 C 88 % 1022.6 hPa 0.0 l/m 0.6 km/h (0 Bft) SW 0.00 h 0 W/m 7.9 C 9.8 C 1.9 km/h (1 Bft)
18.11.2009 05:00 9.6 C 88 % 1023.0 hPa 0.0 l/m 0.6 km/h (0 Bft) W-SW 0.00 h 0 W/m 7.7 C 9.6 C 1.4 km/h (1 Bft)
18.11.2009 06:00 9.3 C 89 % 1023.5 hPa 0.0 l/m 0.1 km/h (0 Bft) W 0.00 h 0 W/m 7.6 C 9.3 C 0.6 km/h (0 Bft)
18.11.2009 07:00 9.1 C 91 % 1023.9 hPa 0.0 l/m 0.2 km/h (0 Bft) S 0.00 h 7 W/m 7.6 C 9.1 C 0.6 km/h (0 Bft)
18.11.2009 08:00 8.9 C 91 % 1024.2 hPa 0.0 l/m 0.4 km/h (0 Bft) S 0.00 h 28 W/m 7.4 C 8.9 C 0.8 km/h (0 Bft)
18.11.2009 09:00 9.1 C 91 % 1024.3 hPa 0.0 l/m 0.6 km/h (0 Bft) W-NW 0.12 h 92 W/m 7.7 C 9.1 C 1.4 km/h (1 Bft)
18.11.2009 10:00 9.8 C 89 % 1024.5 hPa 0.0 l/m 0.1 km/h (0 Bft) W-NW 0.10 h 120 W/m 8.1 C 9.8 C 0.8 km/h (0 Bft)
18.11.2009 11:00 11.0 C 81 % 1024.4 hPa 0.0 l/m 0.9 km/h (0 Bft) W-SW 0.38 h 187 W/m 7.9 C 11.0 C 2.3 km/h (1 Bft)
18.11.2009 12:00 12.2 C 76 % 1023.9 hPa 0.0 l/m 2.7 km/h (1 Bft) W-SW 0.67 h 261 W/m 8.1 C 12.2 C 5.1 km/h (1 Bft)
18.11.2009 13:00 12.8 C 72 % 1023.6 hPa 0.0 l/m 7.6 km/h (2 Bft) W 0.70 h 219 W/m 7.9 C 12.8 C 11.0 km/h (2 Bft)
18.11.2009 14:00 13.2 C 71 % 1023.4 hPa 0.0 l/m 5.6 km/h (1 Bft) W-SW 0.77 h 179 W/m 8.0 C 13.2 C 8.5 km/h (2 Bft)
18.11.2009 15:00 13.6 C 69 % 1023.4 hPa 0.0 l/m 5.4 km/h (1 Bft) W-SW 0.78 h 99 W/m 7.9 C 13.6 C 8.8 km/h (2 Bft)
18.11.2009 16:00 12.4 C 73 % 1023.7 hPa 0.0 l/m 2.3 km/h (1 Bft) W-NW 0.10 h 18 W/m 7.8 C 12.4 C 4.3 km/h (1 Bft)
18.11.2009 17:00 10.6 C 80 % 1024.2 hPa 0.0 l/m 0.8 km/h (0 Bft) SO 0.00 h 0 W/m 7.3 C 10.6 C 1.8 km/h (1 Bft)
18.11.2009 18:00 9.3 C 85 % 1024.8 hPa 0.0 l/m 0.3 km/h (0 Bft) SO 0.00 h 0 W/m 7.0 C 9.3 C 0.9 km/h (0 Bft)
18.11.2009 19:00 8.3 C 88 % 1025.4 hPa 0.0 l/m 0.7 km/h (0 Bft) SO 0.00 h 0 W/m 6.4 C 8.3 C 1.2 km/h (1 Bft)
18.11.2009 20:00 7.2 C 90 % 1026.0 hPa 0.0 l/m 0.1 km/h (0 Bft) SO 0.00 h 0 W/m 5.6 C 7.2 C 0.6 km/h (0 Bft)
18.11.2009 21:00 6.3 C 92 % 1026.4 hPa 0.0 l/m 0.8 km/h (0 Bft) O-SO 0.00 h 0 W/m 5.1 C 6.2 C 1.2 km/h (1 Bft)
18.11.2009 22:00 5.5 C 93 % 1026.7 hPa 0.0 l/m 0.8 km/h (0 Bft) O-SO 0.00 h 0 W/m 4.5 C 5.5 C 1.5 km/h (1 Bft)
18.11.2009 23:00 5.0 C 95 % 1026.8 hPa 0.0 l/m 0.0 km/h (0 Bft) N 0.00 h 0 W/m 4.2 C 5.0 C 0.1 km/h (0 Bft)
19.11.2009 00:00 4.9 C 95 % 1026.7 hPa 0.0 l/m 0.1 km/h (0 Bft) O-SO 0.00 h 0 W/m 4.2 C 4.9 C 0.3 km/h (0 Bft)
19.11.2009 01:00 4.9 C 96 % 1026.6 hPa 0.0 l/m 0.1 km/h (0 Bft) O-SO 0.00 h 0 W/m 4.3 C 4.9 C 0.4 km/h (0 Bft)
19.11.2009 02:00 4.6 C 96 % 1026.7 hPa 0.0 l/m 0.0 km/h (0 Bft) N 0.00 h 0 W/m 4.0 C 4.6 C 0.1 km/h (0 Bft)
19.11.2009 03:00 4.6 C 96 % 1026.4 hPa 0.0 l/m 0.0 km/h (0 Bft) N 0.00 h 0 W/m 4.0 C 4.6 C 0.1 km/h (0 Bft)
19.11.2009 04:00 4.5 C 96 % 1026.6 hPa 0.0 l/m 0.0 km/h (0 Bft) O-SO 0.00 h 0 W/m 3.9 C 4.5 C 0.2 km/h (0 Bft)
19.11.2009 05:00 4.7 C 97 % 1026.7 hPa 0.0 l/m 0.1 km/h (0 Bft) O-SO 0.00 h 0 W/m 4.3 C 4.7 C 0.4 km/h (0 Bft)
19.11.2009 06:00 5.1 C 97 % 1026.7 hPa 0.0 l/m 0.1 km/h (0 Bft) O-SO 0.00 h 0 W/m 4.6 C 5.1 C 0.3 km/h (0 Bft)
19.11.2009 07:00 5.3 C 97 % 1026.6 hPa 0.0 l/m 0.2 km/h (0 Bft) O-SO 0.00 h 6 W/m 4.9 C 5.3 C 0.8 km/h (0 Bft)
19.11.2009 08:00 5.5 C 97 % 1026.9 hPa 0.0 l/m 0.0 km/h (0 Bft) N 0.00 h 24 W/m 5.1 C 5.5 C 0.0 km/h (0 Bft)
19.11.2009 09:00 6.2 C 98 % 1026.9 hPa 0.0 l/m 0.3 km/h (0 Bft) O-SO 0.00 h 56 W/m 5.9 C 6.2 C 1.2 km/h (1 Bft)
19.11.2009 10:00 6.8 C 98 % 1026.8 hPa 0.0 l/m 0.1 km/h (0 Bft) O-SO 0.00 h 76 W/m 6.5 C 6.8 C 1.0 km/h (0 Bft)
19.11.2009 11:00 7.6 C 97 % 1026.8 hPa 0.0 l/m 0.2 km/h (0 Bft) O-SO 0.00 h 98 W/m 7.2 C 7.6 C 1.2 km/h (1 Bft)
19.11.2009 12:00 8.4 C 96 % 1026.1 hPa 0.0 l/m 0.2 km/h (0 Bft) O-SO 0.00 h 89 W/m 7.8 C 8.4 C 0.9 km/h (0 Bft)
19.11.2009 13:00 8.8 C 95 % 1025.6 hPa 0.0 l/m 1.4 km/h (1 Bft) O-SO 0.00 h 94 W/m 8.0 C 8.7 C 2.9 km/h (1 Bft)
19.11.2009 14:00 9.5 C 92 % 1025.4 hPa 0.0 l/m 0.6 km/h (0 Bft) O-SO 0.00 h 103 W/m 8.3 C 9.5 C 1.8 km/h (1 Bft)
19.11.2009 15:00 10.1 C 89 % 1025.2 hPa 0.0 l/m 0.1 km/h (0 Bft) O-NO 0.00 h 63 W/m 8.3 C 10.1 C 0.5 km/h (0 Bft)
19.11.2009 16:00 9.4 C 87 % 1025.3 hPa 0.0 l/m 1.0 km/h (0 Bft) O-NO 0.00 h 12 W/m 7.3 C 9.4 C 1.7 km/h (1 Bft)
19.11.2009 17:00 8.1 C 90 % 1025.6 hPa 0.0 l/m 1.6 km/h (1 Bft) O 0.00 h 0 W/m 6.5 C 8.0 C 2.7 km/h (1 Bft)
19.11.2009 18:00 7.5 C 92 % 1025.9 hPa 0.0 l/m 1.7 km/h (1 Bft) O-SO 0.00 h 0 W/m 6.2 C 7.4 C 3.1 km/h (1 Bft)
19.11.2009 19:00 6.9 C 94 % 1026.3 hPa 0.0 l/m 3.5 km/h (1 Bft) O-SO 0.00 h 0 W/m 6.0 C 6.7 C 5.3 km/h (1 Bft)
19.11.2009 20:00 6.9 C 96 % 1026.2 hPa 0.0 l/m 1.4 km/h (1 Bft) O-SO 0.00 h 0 W/m 6.2 C 6.9 C 2.6 km/h (1 Bft)
19.11.2009 21:00 6.8 C 96 % 1026.1 hPa 0.0 l/m 0.3 km/h (0 Bft) SO 0.00 h 0 W/m 6.2 C 6.8 C 1.1 km/h (1 Bft)
19.11.2009 22:00 6.8 C 97 % 1026.0 hPa 0.0 l/m 0.4 km/h (0 Bft) SO 0.00 h 0 W/m 6.4 C 6.8 C 1.3 km/h (1 Bft)
19.11.2009 23:00 6.6 C 97 % 1025.7 hPa 0.0 l/m 1.2 km/h (1 Bft) O-SO 0.00 h 0 W/m 6.1 C 6.5 C 2.8 km/h (1 Bft)
20.11.2009 00:00 6.4 C 97 % 1025.5 hPa 0.0 l/m 0.4 km/h (0 Bft) O 0.00 h 0 W/m 5.9 C 6.4 C 1.6 km/h (1 Bft)
20.11.2009 01:00 6.0 C 97 % 1025.2 hPa 0.0 l/m 0.4 km/h (0 Bft) N-NO 0.00 h 0 W/m 5.6 C 6.0 C 1.6 km/h (1 Bft)
20.11.2009 02:00 5.7 C 98 % 1025.0 hPa 0.0 l/m 0.8 km/h (0 Bft) SO 0.00 h 0 W/m 5.4 C 5.7 C 2.0 km/h (1 Bft)
20.11.2009 03:00 5.3 C 98 % 1025.0 hPa 0.0 l/m 1.7 km/h (1 Bft) O-SO 0.00 h 0 W/m 5.0 C 5.1 C 3.1 km/h (1 Bft)
20.11.2009 04:00 5.3 C 98 % 1025.0 hPa 0.0 l/m 1.5 km/h (1 Bft) O-SO 0.00 h 0 W/m 5.0 C 5.2 C 3.5 km/h (1 Bft)
20.11.2009 05:00 4.9 C 98 % 1025.1 hPa 0.0 l/m 2.6 km/h (1 Bft) SO 0.00 h 0 W/m 4.7 C 4.7 C 4.6 km/h (1 Bft)
20.11.2009 06:00 4.9 C 98 % 1025.2 hPa 0.0 l/m 1.8 km/h (1 Bft) O 0.00 h 0 W/m 4.6 C 4.8 C 3.9 km/h (1 Bft)
20.11.2009 07:00 4.8 C 98 % 1025.5 hPa 0.2 l/m 3.5 km/h (1 Bft) O 0.00 h 5 W/m 4.6 C 4.5 C 5.7 km/h (1 Bft)
20.11.2009 08:00 5.4 C 99 % 1025.9 hPa 0.0 l/m 1.3 km/h (1 Bft) O-SO 0.00 h 15 W/m 5.3 C 5.3 C 2.6 km/h (1 Bft)
20.11.2009 09:00 5.3 C 99 % 1026.1 hPa 0.0 l/m 0.7 km/h (0 Bft) W 0.00 h 30 W/m 5.2 C 5.3 C 1.6 km/h (1 Bft)
20.11.2009 10:00 5.9 C 99 % 1026.3 hPa 0.0 l/m 0.1 km/h (0 Bft) S-SO 0.00 h 70 W/m 5.8 C 5.9 C 0.7 km/h (0 Bft)
20.11.2009 11:00 7.0 C 99 % 1026.2 hPa 0.0 l/m 0.4 km/h (0 Bft) S-SO 0.00 h 97 W/m 6.9 C 7.0 C 1.1 km/h (0 Bft)
20.11.2009 12:00 7.7 C 99 % 1026.0 hPa 0.0 l/m 0.1 km/h (0 Bft) S-SO 0.00 h 110 W/m 7.6 C 7.7 C 0.6 km/h (0 Bft)
20.11.2009 13:00 8.6 C 99 % 1025.5 hPa 0.0 l/m 0.1 km/h (0 Bft) S-SO 0.50 h 202 W/m 8.4 C 8.6 C 1.0 km/h (0 Bft)
20.11.2009 14:00 9.3 C 99 % 1025.4 hPa 0.0 l/m 2.4 km/h (1 Bft) W 0.67 h 155 W/m 9.1 C 9.3 C 4.6 km/h (1 Bft)
20.11.2009 15:00 9.5 C 96 % 1025.6 hPa 0.0 l/m 0.9 km/h (0 Bft) W 0.33 h 84 W/m 8.9 C 9.5 C 2.4 km/h (1 Bft)
20.11.2009 16:00 8.7 C 94 % 1026.0 hPa 0.0 l/m 0.7 km/h (0 Bft) W-NW 0.02 h 22 W/m 7.7 C 8.7 C 1.8 km/h (1 Bft)
20.11.2009 17:00 7.6 C 94 % 1026.7 hPa 0.0 l/m 0.9 km/h (0 Bft) W-NW 0.00 h 0 W/m 6.7 C 7.6 C 2.5 km/h (1 Bft)
20.11.2009 18:00 7.2 C 95 % 1027.4 hPa 0.0 l/m 0.7 km/h (0 Bft) W-NW 0.00 h 0 W/m 6.4 C 7.2 C 1.6 km/h (1 Bft)
20.11.2009 19:00 6.3 C 96 % 1028.2 hPa 0.0 l/m 0.9 km/h (0 Bft) O 0.00 h 0 W/m 5.7 C 6.3 C 2.2 km/h (1 Bft)
20.11.2009 20:00 5.8 C 97 % 1028.7 hPa 0.0 l/m 1.9 km/h (1 Bft) O 0.00 h 0 W/m 5.3 C 5.7 C 3.5 km/h (1 Bft)
20.11.2009 21:00 5.3 C 97 % 1029.2 hPa 0.0 l/m 3.4 km/h (1 Bft) O-SO 0.00 h 0 W/m 4.9 C 4.9 C 5.2 km/h (1 Bft)
20.11.2009 22:00 5.7 C 98 % 1029.0 hPa 0.0 l/m 1.5 km/h (1 Bft) O-SO 0.00 h 0 W/m 5.4 C 5.7 C 2.8 km/h (1 Bft)
20.11.2009 23:00 5.8 C 98 % 1029.1 hPa 0.0 l/m 1.0 km/h (0 Bft) O-SO 0.00 h 0 W/m 5.5 C 5.8 C 2.1 km/h (1 Bft)
21.11.2009 00:00 5.6 C 98 % 1029.0 hPa 0.0 l/m 2.0 km/h (1 Bft) O-SO 0.00 h 0 W/m 5.3 C 5.5 C 3.1 km/h (1 Bft)
21.11.2009 01:00 5.1 C 98 % 1029.0 hPa 0.0 l/m 2.1 km/h (1 Bft) O 0.00 h 0 W/m 4.8 C 5.0 C 4.2 km/h (1 Bft)
21.11.2009 02:00 5.2 C 99 % 1029.2 hPa 0.0 l/m 1.9 km/h (1 Bft) O-SO 0.00 h 0 W/m 5.0 C 5.1 C 3.6 km/h (1 Bft)
21.11.2009 03:00 5.3 C 99 % 1029.1 hPa 0.0 l/m 0.2 km/h (0 Bft) O-SO 0.00 h 0 W/m 5.2 C 5.3 C 0.6 km/h (0 Bft)
21.11.2009 04:00 5.1 C 99 % 1029.0 hPa 0.0 l/m 0.0 km/h (0 Bft) N 0.00 h 0 W/m 5.0 C 5.1 C 0.3 km/h (0 Bft)
21.11.2009 05:00 5.0 C 99 % 1029.1 hPa 0.0 l/m 1.7 km/h (1 Bft) O-SO 0.00 h 0 W/m 4.9 C 5.0 C 3.4 km/h (1 Bft)
21.11.2009 06:00 5.0 C 99 % 1029.2 hPa 0.0 l/m 1.7 km/h (1 Bft) O-SO 0.00 h 0 W/m 4.9 C 5.0 C 3.7 km/h (1 Bft)
21.11.2009 07:00 4.7 C 99 % 1029.4 hPa 0.0 l/m 3.9 km/h (1 Bft) O-SO 0.00 h 8 W/m 4.5 C 4.0 C 6.4 km/h (2 Bft)
21.11.2009 08:00 4.7 C 99 % 1029.7 hPa 0.0 l/m 2.1 km/h (1 Bft) O-SO 0.05 h 33 W/m 4.5 C 4.5 C 3.7 km/h (1 Bft)
21.11.2009 09:00 5.4 C 99 % 1029.6 hPa 0.0 l/m 2.1 km/h (1 Bft) SO 0.97 h 175 W/m 5.2 C 5.2 C 4.0 km/h (1 Bft)
21.11.2009 10:00 6.2 C 99 % 1029.4 hPa 0.0 l/m 0.6 km/h (0 Bft) N-NW 0.02 h 96 W/m 6.1 C 6.2 C 2.0 km/h (1 Bft)
21.11.2009 11:00 6.4 C 99 % 1028.8 hPa 0.0 l/m 0.9 km/h (0 Bft) W-NW 0.18 h 160 W/m 6.2 C 6.4 C 2.2 km/h (1 Bft)
21.11.2009 12:00 7.3 C 99 % 1027.8 hPa 0.0 l/m 0.6 km/h (0 Bft) W-NW 0.08 h 157 W/m 7.2 C 7.3 C 1.8 km/h (1 Bft)
21.11.2009 13:00 7.8 C 99 % 1026.8 hPa 0.0 l/m 0.2 km/h (0 Bft) W-NW 0.00 h 109 W/m 7.6 C 7.8 C 1.2 km/h (1 Bft)
21.11.2009 14:00 8.5 C 99 % 1025.8 hPa 0.0 l/m 0.2 km/h (0 Bft) W-NW 0.23 h 129 W/m 8.3 C 8.5 C 1.0 km/h (0 Bft)
21.11.2009 15:00 9.0 C 98 % 1025.0 hPa 0.0 l/m 0.0 km/h (0 Bft) N 0.33 h 80 W/m 8.7 C 9.0 C 0.0 km/h (0 Bft)
21.11.2009 16:00 9.2 C 96 % 1024.6 hPa 0.0 l/m 0.0 km/h (0 Bft) N 0.03 h 20 W/m 8.6 C 9.2 C 0.0 km/h (0 Bft)
21.11.2009 17:00 7.7 C 95 % 1024.6 hPa 0.0 l/m 0.3 km/h (0 Bft) W-NW 0.00 h 0 W/m 6.9 C 7.7 C 0.8 km/h (0 Bft)
21.11.2009 18:00 6.6 C 95 % 1024.7 hPa 0.0 l/m 0.3 km/h (0 Bft) W-NW 0.00 h 0 W/m 5.9 C 6.6 C 1.0 km/h (0 Bft)
21.11.2009 19:00 5.6 C 95 % 1024.4 hPa 0.0 l/m 0.5 km/h (0 Bft) O-NO 0.00 h 0 W/m 5.0 C 5.6 C 1.0 km/h (0 Bft)
21.11.2009 20:00 5.3 C 96 % 1024.1 hPa 0.0 l/m 0.0 km/h (0 Bft) N 0.00 h 0 W/m 4.8 C 5.3 C 0.2 km/h (0 Bft)
21.11.2009 21:00 5.2 C 97 % 1023.4 hPa 0.0 l/m 0.2 km/h (0 Bft) O-NO 0.00 h 0 W/m 4.7 C 5.2 C 0.6 km/h (0 Bft)
21.11.2009 22:00 4.8 C 97 % 1022.9 hPa 0.2 l/m 0.7 km/h (0 Bft) O-NO 0.00 h 0 W/m 4.3 C 4.8 C 1.6 km/h (1 Bft)
21.11.2009 23:00 4.0 C 97 % 1022.2 hPa 0.0 l/m 3.3 km/h (1 Bft) O-SO 0.00 h 0 W/m 3.6 C 3.9 C 4.6 km/h (1 Bft)
22.11.2009 00:00 3.7 C 98 % 1021.7 hPa 0.0 l/m 2.7 km/h (1 Bft) O-SO 0.00 h 0 W/m 3.4 C 3.5 C 4.6 km/h (1 Bft)
22.11.2009 01:00 4.0 C 98 % 1021.0 hPa 0.0 l/m 2.5 km/h (1 Bft) O 0.00 h 0 W/m 3.7 C 3.8 C 4.6 km/h (1 Bft)
22.11.2009 02:00 4.3 C 98 % 1020.3 hPa 0.0 l/m 3.4 km/h (1 Bft) O-SO 0.00 h 0 W/m 4.1 C 4.0 C 5.5 km/h (1 Bft)
22.11.2009 03:00 4.4 C 99 % 1019.9 hPa 0.0 l/m 0.8 km/h (0 Bft) SO 0.00 h 0 W/m 4.3 C 4.4 C 2.2 km/h (1 Bft)
22.11.2009 04:00 4.6 C 99 % 1019.8 hPa 0.0 l/m 1.9 km/h (1 Bft) O 0.00 h 0 W/m 4.4 C 4.5 C 3.4 km/h (1 Bft)
22.11.2009 05:00 5.2 C 99 % 1020.1 hPa 0.0 l/m 0.9 km/h (0 Bft) S-SW 0.00 h 0 W/m 5.0 C 5.2 C 3.0 km/h (1 Bft)
22.11.2009 06:00 5.3 C 99 % 1020.8 hPa 0.0 l/m 2.6 km/h (1 Bft) S-SO 0.00 h 0 W/m 5.2 C 5.0 C 5.2 km/h (1 Bft)
22.11.2009 07:00 5.3 C 99 % 1021.4 hPa 0.0 l/m 0.5 km/h (0 Bft) SO 0.10 h 10 W/m 5.1 C 5.2 C 1.4 km/h (1 Bft)
22.11.2009 08:00 5.0 C 99 % 1021.7 hPa 0.0 l/m 0.4 km/h (0 Bft) O-NO 0.05 h 24 W/m 4.9 C 5.0 C 1.1 km/h (1 Bft)
22.11.2009 09:00 5.3 C 99 % 1021.7 hPa 0.0 l/m 0.5 km/h (0 Bft) NW 0.00 h 33 W/m 5.1 C 5.3 C 1.5 km/h (1 Bft)
22.11.2009 10:00 5.6 C 99 % 1021.5 hPa 0.0 l/m 0.2 km/h (0 Bft) NW 0.00 h 42 W/m 5.4 C 5.6 C 0.9 km/h (0 Bft)
22.11.2009 11:00 6.2 C 99 % 1020.9 hPa 0.0 l/m 0.5 km/h (0 Bft) NW 0.00 h 82 W/m 6.1 C 6.2 C 1.6 km/h (1 Bft)
22.11.2009 12:00 6.8 C 99 % 1020.2 hPa 0.0 l/m 1.4 km/h (1 Bft) W-NW 0.00 h 89 W/m 6.7 C 6.6 C 2.7 km/h (1 Bft)
22.11.2009 13:00 7.7 C 99 % 1019.7 hPa 0.0 l/m 1.1 km/h (1 Bft) O 0.00 h 87 W/m 7.6 C 7.7 C 2.8 km/h (1 Bft)
22.11.2009 14:00 9.4 C 99 % 1019.0 hPa 0.0 l/m 3.7 km/h (1 Bft) W-NW 0.00 h 61 W/m 9.2 C 9.1 C 6.7 km/h (2 Bft)
22.11.2009 15:00 10.1 C 98 % 1018.9 hPa 0.4 l/m 1.3 km/h (1 Bft) SW 0.00 h 23 W/m 9.8 C 10.1 C 3.2 km/h (1 Bft)
22.11.2009 16:00 9.9 C 97 % 1018.9 hPa 0.2 l/m 1.3 km/h (1 Bft) S 0.00 h 13 W/m 9.4 C 9.8 C 3.0 km/h (1 Bft)
22.11.2009 17:00 9.6 C 96 % 1018.9 hPa 0.0 l/m 1.7 km/h (1 Bft) S-SO 0.00 h 0 W/m 9.1 C 9.6 C 3.6 km/h (1 Bft)
22.11.2009 18:00 9.7 C 96 % 1018.9 hPa 0.0 l/m 3.1 km/h (1 Bft) S-SW 0.00 h 0 W/m 9.2 C 9.6 C 6.2 km/h (2 Bft)
22.11.2009 19:00 9.6 C 95 % 1018.9 hPa 0.0 l/m 5.6 km/h (1 Bft) S 0.00 h 0 W/m 8.8 C 9.1 C 10.3 km/h (2 Bft)
22.11.2009 20:00 9.6 C 88 % 1018.7 hPa 0.0 l/m 5.4 km/h (1 Bft) S-SW 0.00 h 0 W/m 7.8 C 9.1 C 9.8 km/h (2 Bft)
22.11.2009 21:00 9.1 C 86 % 1018.1 hPa 0.0 l/m 4.0 km/h (1 Bft) SW 0.00 h 0 W/m 6.9 C 8.9 C 6.8 km/h (2 Bft)
22.11.2009 22:00 8.8 C 86 % 1017.7 hPa 0.0 l/m 1.9 km/h (1 Bft) W-SW 0.00 h 0 W/m 6.7 C 8.8 C 4.5 km/h (1 Bft)
22.11.2009 23:00 9.3 C 85 % 1017.4 hPa 0.0 l/m 2.6 km/h (1 Bft) W-SW 0.00 h 0 W/m 7.0 C 9.2 C 4.9 km/h (1 Bft)
Min-Datum _ 22.11.09 18.11.09 17.11.09 - 16.11.09 - - - 22.11.09 22.11.09 16.11.09
_ Min-Zeit 00:18 15:11 15:00 - 00:00 - - - 00:28 01:44 00:00
Minimum _ 3.6 C 67 % 1011.8 hPa - 0.0 km/h (0 Bft) - - - 3.3 C 2.4 C 0.0 km/h (0 Bft)
Max-Datum _ 17.11.09 16.11.09 21.11.09 16.11.09 18.11.09 - 16.11.09 16.11.09 16.11.09 17.11.09 17.11.09
_ Max-Zeit 14:56 00:00 07:30 00:05 00:23 - 10:39 12:36 14:35 14:56 22:42
Maximum _ 15.0 C 99 % 1029.7 hPa 1.2 l/m 26.1 km/h
W (4 Bft)
- 0.02 h 438 W/m 12.6 C 15.0 C 36.5 km/h
W (5 Bft)
Durchschnitt _ 8.2 C 94 % 1021.6 hPa #12.4 l/m 1.6 km/h (1 Bft) O-SO #9:14 h 84 W/m 7.4 C 8.2 C 3.1 km/h (1 Bft)
© Kaiko 2009